sensor_id;sensor_type;location;lat;lon;timestamp;P1;durP1;ratioP1;P2;durP2;ratioP2
35442;SDS011;21561;55.654;37.592;2023-03-17T00:01:32;15.70;;;3.80;;
35442;SDS011;21561;55.654;37.592;2023-03-17T00:04:00;15.50;;;4.20;;
35442;SDS011;21561;55.654;37.592;2023-03-17T00:06:28;15.68;;;4.20;;
35442;SDS011;21561;55.654;37.592;2023-03-17T00:08:56;13.30;;;4.03;;
35442;SDS011;21561;55.654;37.592;2023-03-17T00:11:23;15.55;;;4.55;;
35442;SDS011;21561;55.654;37.592;2023-03-17T00:13:52;12.43;;;3.97;;
35442;SDS011;21561;55.654;37.592;2023-03-17T00:16:21;13.77;;;4.13;;
35442;SDS011;21561;55.654;37.592;2023-03-17T00:18:50;13.40;;;3.70;;
35442;SDS011;21561;55.654;37.592;2023-03-17T00:21:24;13.15;;;4.07;;
35442;SDS011;21561;55.654;37.592;2023-03-17T00:23:53;13.23;;;3.30;;
35442;SDS011;21561;55.654;37.592;2023-03-17T00:26:21;13.85;;;3.90;;
35442;SDS011;21561;55.654;37.592;2023-03-17T00:28:49;12.40;;;3.45;;
35442;SDS011;21561;55.654;37.592;2023-03-17T00:31:17;9.88;;;3.35;;
35442;SDS011;21561;55.654;37.592;2023-03-17T00:36:18;10.32;;;3.25;;
35442;SDS011;21561;55.654;37.592;2023-03-17T00:38:48;12.27;;;3.17;;
35442;SDS011;21561;55.654;37.592;2023-03-17T00:41:15;12.80;;;3.63;;
35442;SDS011;21561;55.654;37.592;2023-03-17T00:43:42;11.40;;;3.13;;
35442;SDS011;21561;55.654;37.592;2023-03-17T00:46:14;12.00;;;3.30;;
35442;SDS011;21561;55.654;37.592;2023-03-17T00:48:42;12.75;;;4.05;;
35442;SDS011;21561;55.654;37.592;2023-03-17T00:51:11;9.63;;;2.97;;
35442;SDS011;21561;55.654;37.592;2023-03-17T00:53:38;13.43;;;3.75;;
35442;SDS011;21561;55.654;37.592;2023-03-17T00:56:09;13.77;;;4.00;;
35442;SDS011;21561;55.654;37.592;2023-03-17T00:58:39;13.05;;;3.92;;
35442;SDS011;21561;55.654;37.592;2023-03-17T01:01:07;13.20;;;3.80;;
35442;SDS011;21561;55.654;37.592;2023-03-17T01:03:35;14.40;;;4.10;;
35442;SDS011;21561;55.654;37.592;2023-03-17T01:06:03;17.20;;;4.20;;
35442;SDS011;21561;55.654;37.592;2023-03-17T01:08:32;15.02;;;4.53;;
35442;SDS011;21561;55.654;37.592;2023-03-17T01:10:59;14.38;;;4.72;;
35442;SDS011;21561;55.654;37.592;2023-03-17T01:13:27;15.98;;;5.15;;
35442;SDS011;21561;55.654;37.592;2023-03-17T01:15:54;19.52;;;5.57;;
35442;SDS011;21561;55.654;37.592;2023-03-17T01:18:24;16.65;;;5.07;;
35442;SDS011;21561;55.654;37.592;2023-03-17T01:20:51;17.83;;;6.20;;
35442;SDS011;21561;55.654;37.592;2023-03-17T01:23:18;17.45;;;5.60;;
35442;SDS011;21561;55.654;37.592;2023-03-17T01:25:45;17.67;;;5.10;;
35442;SDS011;21561;55.654;37.592;2023-03-17T01:28:12;17.92;;;4.75;;
35442;SDS011;21561;55.654;37.592;2023-03-17T01:30:41;17.27;;;5.10;;
35442;SDS011;21561;55.654;37.592;2023-03-17T01:33:09;16.00;;;4.53;;
35442;SDS011;21561;55.654;37.592;2023-03-17T01:35:38;15.82;;;4.88;;
35442;SDS011;21561;55.654;37.592;2023-03-17T01:38:06;14.27;;;4.38;;
35442;SDS011;21561;55.654;37.592;2023-03-17T01:40:35;16.77;;;5.22;;
35442;SDS011;21561;55.654;37.592;2023-03-17T01:48:42;17.27;;;4.50;;
35442;SDS011;21561;55.654;37.592;2023-03-17T01:53:58;13.20;;;3.85;;
35442;SDS011;21561;55.654;37.592;2023-03-17T01:56:26;14.55;;;3.83;;
35442;SDS011;21561;55.654;37.592;2023-03-17T01:58:54;13.68;;;3.50;;
35442;SDS011;21561;55.654;37.592;2023-03-17T02:01:26;14.98;;;3.67;;
35442;SDS011;21561;55.654;37.592;2023-03-17T02:03:56;11.07;;;3.28;;
35442;SDS011;21561;55.654;37.592;2023-03-17T02:06:24;11.52;;;3.35;;
35442;SDS011;21561;55.654;37.592;2023-03-17T02:08:51;12.63;;;3.20;;
35442;SDS011;21561;55.654;37.592;2023-03-17T02:11:19;13.73;;;2.88;;
35442;SDS011;21561;55.654;37.592;2023-03-17T02:13:46;11.75;;;3.42;;
35442;SDS011;21561;55.654;37.592;2023-03-17T02:16:14;7.53;;;2.42;;
35442;SDS011;21561;55.654;37.592;2023-03-17T02:18:42;11.13;;;2.85;;
35442;SDS011;21561;55.654;37.592;2023-03-17T02:21:26;11.73;;;3.17;;
35442;SDS011;21561;55.654;37.592;2023-03-17T02:23:57;14.60;;;3.10;;
35442;SDS011;21561;55.654;37.592;2023-03-17T02:26:28;9.20;;;2.80;;
35442;SDS011;21561;55.654;37.592;2023-03-17T02:28:57;11.43;;;3.05;;
35442;SDS011;21561;55.654;37.592;2023-03-17T02:31:25;12.13;;;3.28;;
35442;SDS011;21561;55.654;37.592;2023-03-17T02:33:52;10.43;;;2.65;;
35442;SDS011;21561;55.654;37.592;2023-03-17T02:36:20;10.55;;;2.53;;
35442;SDS011;21561;55.654;37.592;2023-03-17T02:38:47;12.07;;;3.20;;
35442;SDS011;21561;55.654;37.592;2023-03-17T02:41:14;13.70;;;3.53;;
35442;SDS011;21561;55.654;37.592;2023-03-17T02:43:42;10.82;;;2.88;;
35442;SDS011;21561;55.654;37.592;2023-03-17T02:46:09;11.05;;;2.88;;
35442;SDS011;21561;55.654;37.592;2023-03-17T02:48:36;13.50;;;3.60;;
35442;SDS011;21561;55.654;37.592;2023-03-17T02:51:03;13.05;;;3.30;;
35442;SDS011;21561;55.654;37.592;2023-03-17T02:53:31;12.63;;;3.67;;
35442;SDS011;21561;55.654;37.592;2023-03-17T02:55:58;10.73;;;3.08;;
35442;SDS011;21561;55.654;37.592;2023-03-17T02:58:25;13.43;;;3.58;;
35442;SDS011;21561;55.654;37.592;2023-03-17T03:00:52;10.35;;;2.85;;
35442;SDS011;21561;55.654;37.592;2023-03-17T03:03:19;8.93;;;2.63;;
35442;SDS011;21561;55.654;37.592;2023-03-17T03:05:46;12.05;;;3.13;;
35442;SDS011;21561;55.654;37.592;2023-03-17T03:08:13;8.93;;;2.25;;
35442;SDS011;21561;55.654;37.592;2023-03-17T03:10:40;7.65;;;2.20;;
35442;SDS011;21561;55.654;37.592;2023-03-17T03:13:07;8.10;;;2.40;;
35442;SDS011;21561;55.654;37.592;2023-03-17T03:15:34;10.65;;;2.42;;
35442;SDS011;21561;55.654;37.592;2023-03-17T03:18:01;9.63;;;2.28;;
35442;SDS011;21561;55.654;37.592;2023-03-17T03:20:28;7.38;;;2.20;;
35442;SDS011;21561;55.654;37.592;2023-03-17T03:22:55;10.05;;;2.42;;
35442;SDS011;21561;55.654;37.592;2023-03-17T03:25:22;7.95;;;1.80;;
35442;SDS011;21561;55.654;37.592;2023-03-17T03:27:49;8.75;;;2.05;;
35442;SDS011;21561;55.654;37.592;2023-03-17T03:30:16;10.98;;;2.20;;
35442;SDS011;21561;55.654;37.592;2023-03-17T03:32:43;9.55;;;2.22;;
35442;SDS011;21561;55.654;37.592;2023-03-17T03:35:10;11.88;;;2.25;;
35442;SDS011;21561;55.654;37.592;2023-03-17T03:37:37;9.07;;;2.20;;
35442;SDS011;21561;55.654;37.592;2023-03-17T03:40:04;8.90;;;1.50;;
35442;SDS011;21561;55.654;37.592;2023-03-17T03:42:32;8.82;;;2.38;;
35442;SDS011;21561;55.654;37.592;2023-03-17T03:44:59;6.68;;;1.77;;
35442;SDS011;21561;55.654;37.592;2023-03-17T03:47:26;10.70;;;1.80;;
35442;SDS011;21561;55.654;37.592;2023-03-17T03:49:53;7.65;;;1.80;;
35442;SDS011;21561;55.654;37.592;2023-03-17T03:52:20;6.80;;;1.75;;
35442;SDS011;21561;55.654;37.592;2023-03-17T03:54:47;6.70;;;1.75;;
35442;SDS011;21561;55.654;37.592;2023-03-17T03:57:14;8.57;;;1.80;;
35442;SDS011;21561;55.654;37.592;2023-03-17T03:59:41;7.00;;;2.20;;
35442;SDS011;21561;55.654;37.592;2023-03-17T04:02:07;8.68;;;1.65;;
35442;SDS011;21561;55.654;37.592;2023-03-17T04:04:35;6.07;;;1.33;;
35442;SDS011;21561;55.654;37.592;2023-03-17T04:07:02;6.65;;;1.67;;
35442;SDS011;21561;55.654;37.592;2023-03-17T04:09:29;6.47;;;1.70;;
35442;SDS011;21561;55.654;37.592;2023-03-17T04:11:56;7.28;;;1.80;;
35442;SDS011;21561;55.654;37.592;2023-03-17T04:14:22;4.95;;;1.40;;
35442;SDS011;21561;55.654;37.592;2023-03-17T04:16:49;4.90;;;1.60;;
35442;SDS011;21561;55.654;37.592;2023-03-17T04:19:16;8.02;;;1.67;;
35442;SDS011;21561;55.654;37.592;2023-03-17T04:21:43;6.88;;;1.60;;
35442;SDS011;21561;55.654;37.592;2023-03-17T04:24:10;4.03;;;1.17;;
35442;SDS011;21561;55.654;37.592;2023-03-17T04:26:37;6.90;;;1.52;;
35442;SDS011;21561;55.654;37.592;2023-03-17T04:29:03;6.45;;;1.35;;
35442;SDS011;21561;55.654;37.592;2023-03-17T04:31:33;3.75;;;1.45;;
35442;SDS011;21561;55.654;37.592;2023-03-17T04:34:01;5.55;;;1.25;;
35442;SDS011;21561;55.654;37.592;2023-03-17T04:36:28;7.88;;;1.63;;
35442;SDS011;21561;55.654;37.592;2023-03-17T04:38:55;4.82;;;1.58;;
35442;SDS011;21561;55.654;37.592;2023-03-17T04:41:21;7.63;;;1.77;;
35442;SDS011;21561;55.654;37.592;2023-03-17T04:43:48;7.43;;;1.52;;
35442;SDS011;21561;55.654;37.592;2023-03-17T04:46:15;6.15;;;1.30;;
35442;SDS011;21561;55.654;37.592;2023-03-17T04:48:42;6.03;;;1.48;;
35442;SDS011;21561;55.654;37.592;2023-03-17T04:51:09;6.93;;;1.80;;
35442;SDS011;21561;55.654;37.592;2023-03-17T04:53:37;9.23;;;1.73;;
35442;SDS011;21561;55.654;37.592;2023-03-17T04:56:04;3.40;;;0.93;;
35442;SDS011;21561;55.654;37.592;2023-03-17T04:58:31;4.85;;;1.63;;
35442;SDS011;21561;55.654;37.592;2023-03-17T05:00:58;4.53;;;1.67;;
35442;SDS011;21561;55.654;37.592;2023-03-17T05:03:24;7.43;;;1.48;;
35442;SDS011;21561;55.654;37.592;2023-03-17T05:05:53;6.00;;;1.30;;
35442;SDS011;21561;55.654;37.592;2023-03-17T05:08:21;6.38;;;1.30;;
35442;SDS011;21561;55.654;37.592;2023-03-17T05:10:48;4.43;;;1.30;;
35442;SDS011;21561;55.654;37.592;2023-03-17T05:13:15;7.07;;;1.48;;
35442;SDS011;21561;55.654;37.592;2023-03-17T05:15:51;5.40;;;1.30;;
35442;SDS011;21561;55.654;37.592;2023-03-17T05:18:21;4.45;;;1.15;;
35442;SDS011;21561;55.654;37.592;2023-03-17T05:20:49;5.47;;;1.42;;
35442;SDS011;21561;55.654;37.592;2023-03-17T05:23:16;7.47;;;1.70;;
35442;SDS011;21561;55.654;37.592;2023-03-17T05:25:43;4.70;;;1.10;;
35442;SDS011;21561;55.654;37.592;2023-03-17T05:28:10;8.05;;;1.42;;
35442;SDS011;21561;55.654;37.592;2023-03-17T05:30:36;7.28;;;1.67;;
35442;SDS011;21561;55.654;37.592;2023-03-17T05:33:04;6.15;;;1.33;;
35442;SDS011;21561;55.654;37.592;2023-03-17T05:35:31;8.10;;;1.30;;
35442;SDS011;21561;55.654;37.592;2023-03-17T05:37:58;6.75;;;1.42;;
35442;SDS011;21561;55.654;37.592;2023-03-17T05:40:25;5.90;;;1.20;;
35442;SDS011;21561;55.654;37.592;2023-03-17T05:42:52;5.07;;;1.50;;
35442;SDS011;21561;55.654;37.592;2023-03-17T05:45:19;7.13;;;1.67;;
35442;SDS011;21561;55.654;37.592;2023-03-17T05:47:46;6.28;;;1.27;;
35442;SDS011;21561;55.654;37.592;2023-03-17T05:50:13;7.30;;;1.50;;
35442;SDS011;21561;55.654;37.592;2023-03-17T05:52:40;3.95;;;1.30;;
35442;SDS011;21561;55.654;37.592;2023-03-17T05:55:07;6.30;;;1.38;;
35442;SDS011;21561;55.654;37.592;2023-03-17T05:57:34;6.85;;;1.75;;
35442;SDS011;21561;55.654;37.592;2023-03-17T06:00:02;5.60;;;2.13;;
35442;SDS011;21561;55.654;37.592;2023-03-17T06:02:30;3.53;;;1.20;;
35442;SDS011;21561;55.654;37.592;2023-03-17T06:04:57;6.70;;;1.42;;
35442;SDS011;21561;55.654;37.592;2023-03-17T06:07:24;7.85;;;1.70;;
35442;SDS011;21561;55.654;37.592;2023-03-17T06:09:54;5.88;;;1.35;;
35442;SDS011;21561;55.654;37.592;2023-03-17T06:12:21;7.18;;;1.60;;
35442;SDS011;21561;55.654;37.592;2023-03-17T06:14:48;7.22;;;1.52;;
35442;SDS011;21561;55.654;37.592;2023-03-17T06:17:16;9.25;;;1.25;;
35442;SDS011;21561;55.654;37.592;2023-03-17T06:19:43;4.03;;;0.80;;
35442;SDS011;21561;55.654;37.592;2023-03-17T06:22:10;3.90;;;1.00;;
35442;SDS011;21561;55.654;37.592;2023-03-17T06:24:37;7.85;;;1.55;;
35442;SDS011;21561;55.654;37.592;2023-03-17T06:27:04;4.97;;;1.42;;
35442;SDS011;21561;55.654;37.592;2023-03-17T06:29:31;2.78;;;1.02;;
35442;SDS011;21561;55.654;37.592;2023-03-17T06:31:57;7.20;;;1.48;;
35442;SDS011;21561;55.654;37.592;2023-03-17T06:34:42;7.15;;;1.88;;
35442;SDS011;21561;55.654;37.592;2023-03-17T06:37:09;8.20;;;1.90;;
35442;SDS011;21561;55.654;37.592;2023-03-17T06:39:37;7.07;;;1.30;;
35442;SDS011;21561;55.654;37.592;2023-03-17T06:42:04;4.90;;;1.52;;
35442;SDS011;21561;55.654;37.592;2023-03-17T06:44:31;5.95;;;1.50;;
35442;SDS011;21561;55.654;37.592;2023-03-17T06:46:58;5.30;;;1.50;;
35442;SDS011;21561;55.654;37.592;2023-03-17T06:49:25;7.47;;;1.60;;
35442;SDS011;21561;55.654;37.592;2023-03-17T06:51:52;5.80;;;1.38;;
35442;SDS011;21561;55.654;37.592;2023-03-17T06:54:19;5.88;;;1.60;;
35442;SDS011;21561;55.654;37.592;2023-03-17T06:56:49;7.68;;;1.67;;
35442;SDS011;21561;55.654;37.592;2023-03-17T06:59:16;5.22;;;1.40;;
35442;SDS011;21561;55.654;37.592;2023-03-17T07:01:43;6.18;;;1.63;;
35442;SDS011;21561;55.654;37.592;2023-03-17T07:04:11;6.90;;;1.60;;
35442;SDS011;21561;55.654;37.592;2023-03-17T07:06:38;8.02;;;1.70;;
35442;SDS011;21561;55.654;37.592;2023-03-17T07:09:05;5.93;;;1.70;;
35442;SDS011;21561;55.654;37.592;2023-03-17T07:11:32;9.65;;;1.63;;
35442;SDS011;21561;55.654;37.592;2023-03-17T07:13:59;7.43;;;1.98;;
35442;SDS011;21561;55.654;37.592;2023-03-17T07:16:27;11.30;;;1.90;;
35442;SDS011;21561;55.654;37.592;2023-03-17T07:18:54;7.07;;;1.88;;
35442;SDS011;21561;55.654;37.592;2023-03-17T07:21:21;8.85;;;1.60;;
35442;SDS011;21561;55.654;37.592;2023-03-17T07:23:48;5.65;;;1.63;;
35442;SDS011;21561;55.654;37.592;2023-03-17T07:26:15;7.38;;;1.80;;
35442;SDS011;21561;55.654;37.592;2023-03-17T07:28:42;10.77;;;1.85;;
35442;SDS011;21561;55.654;37.592;2023-03-17T07:31:09;12.13;;;2.72;;
35442;SDS011;21561;55.654;37.592;2023-03-17T07:33:40;5.78;;;1.42;;
35442;SDS011;21561;55.654;37.592;2023-03-17T07:36:07;9.25;;;1.95;;
35442;SDS011;21561;55.654;37.592;2023-03-17T07:38:34;7.70;;;1.90;;
35442;SDS011;21561;55.654;37.592;2023-03-17T07:41:02;8.23;;;1.75;;
35442;SDS011;21561;55.654;37.592;2023-03-17T07:43:30;8.52;;;1.80;;
35442;SDS011;21561;55.654;37.592;2023-03-17T07:45:57;10.13;;;1.98;;
35442;SDS011;21561;55.654;37.592;2023-03-17T07:48:24;8.38;;;3.67;;
35442;SDS011;21561;55.654;37.592;2023-03-17T07:50:51;8.45;;;1.83;;
35442;SDS011;21561;55.654;37.592;2023-03-17T07:53:18;6.88;;;1.73;;
35442;SDS011;21561;55.654;37.592;2023-03-17T07:55:45;10.75;;;1.70;;
35442;SDS011;21561;55.654;37.592;2023-03-17T07:58:11;5.38;;;1.58;;
35442;SDS011;21561;55.654;37.592;2023-03-17T08:00:41;6.13;;;1.70;;
35442;SDS011;21561;55.654;37.592;2023-03-17T08:03:08;5.20;;;1.30;;
35442;SDS011;21561;55.654;37.592;2023-03-17T08:05:36;9.40;;;2.00;;
35442;SDS011;21561;55.654;37.592;2023-03-17T08:08:03;12.10;;;2.38;;
35442;SDS011;21561;55.654;37.592;2023-03-17T08:10:32;6.55;;;1.70;;
35442;SDS011;21561;55.654;37.592;2023-03-17T08:12:59;6.50;;;1.60;;
35442;SDS011;21561;55.654;37.592;2023-03-17T08:15:26;5.75;;;1.50;;
35442;SDS011;21561;55.654;37.592;2023-03-17T08:17:53;7.78;;;1.80;;
35442;SDS011;21561;55.654;37.592;2023-03-17T08:20:20;8.27;;;1.73;;
35442;SDS011;21561;55.654;37.592;2023-03-17T08:22:47;7.25;;;1.67;;
35442;SDS011;21561;55.654;37.592;2023-03-17T08:25:14;8.70;;;1.98;;
35442;SDS011;21561;55.654;37.592;2023-03-17T08:27:40;5.43;;;1.55;;
35442;SDS011;21561;55.654;37.592;2023-03-17T08:30:08;10.73;;;2.65;;
35442;SDS011;21561;55.654;37.592;2023-03-17T08:32:35;10.27;;;1.63;;
35442;SDS011;21561;55.654;37.592;2023-03-17T08:35:02;5.40;;;1.48;;
35442;SDS011;21561;55.654;37.592;2023-03-17T08:37:31;9.48;;;1.52;;
35442;SDS011;21561;55.654;37.592;2023-03-17T08:39:58;11.93;;;2.17;;
35442;SDS011;21561;55.654;37.592;2023-03-17T08:42:26;7.55;;;1.65;;
35442;SDS011;21561;55.654;37.592;2023-03-17T08:44:53;9.88;;;2.30;;
35442;SDS011;21561;55.654;37.592;2023-03-17T08:47:20;6.25;;;1.40;;
35442;SDS011;21561;55.654;37.592;2023-03-17T08:49:47;11.25;;;1.83;;
35442;SDS011;21561;55.654;37.592;2023-03-17T08:52:14;8.48;;;2.03;;
35442;SDS011;21561;55.654;37.592;2023-03-17T08:54:42;7.22;;;1.80;;
35442;SDS011;21561;55.654;37.592;2023-03-17T08:57:09;7.97;;;1.63;;
35442;SDS011;21561;55.654;37.592;2023-03-17T08:59:35;9.43;;;1.88;;
35442;SDS011;21561;55.654;37.592;2023-03-17T09:02:03;7.60;;;1.55;;
35442;SDS011;21561;55.654;37.592;2023-03-17T09:04:30;11.88;;;2.20;;
35442;SDS011;21561;55.654;37.592;2023-03-17T09:06:57;9.35;;;2.53;;
35442;SDS011;21561;55.654;37.592;2023-03-17T09:09:30;7.80;;;1.77;;
35442;SDS011;21561;55.654;37.592;2023-03-17T09:11:58;7.22;;;1.83;;
35442;SDS011;21561;55.654;37.592;2023-03-17T09:14:26;9.93;;;1.75;;
35442;SDS011;21561;55.654;37.592;2023-03-17T09:16:53;7.18;;;1.60;;
35442;SDS011;21561;55.654;37.592;2023-03-17T09:19:22;5.80;;;2.00;;
35442;SDS011;21561;55.654;37.592;2023-03-17T09:21:49;6.00;;;1.35;;
35442;SDS011;21561;55.654;37.592;2023-03-17T09:24:17;9.57;;;1.70;;
35442;SDS011;21561;55.654;37.592;2023-03-17T09:26:44;5.60;;;1.42;;
35442;SDS011;21561;55.654;37.592;2023-03-17T09:29:11;6.68;;;1.60;;
35442;SDS011;21561;55.654;37.592;2023-03-17T09:31:38;4.38;;;1.55;;
35442;SDS011;21561;55.654;37.592;2023-03-17T09:34:07;8.93;;;1.90;;
35442;SDS011;21561;55.654;37.592;2023-03-17T09:36:34;6.32;;;1.45;;
35442;SDS011;21561;55.654;37.592;2023-03-17T09:39:01;7.40;;;2.10;;
35442;SDS011;21561;55.654;37.592;2023-03-17T09:51:03;4.18;;;1.15;;
35442;SDS011;21561;55.654;37.592;2023-03-17T09:53:15;8.73;;;1.45;;
35442;SDS011;21561;55.654;37.592;2023-03-17T09:58:13;12.27;;;2.42;;
35442;SDS011;21561;55.654;37.592;2023-03-17T10:00:40;12.05;;;2.08;;
35442;SDS011;21561;55.654;37.592;2023-03-17T10:03:08;6.57;;;1.50;;
35442;SDS011;21561;55.654;37.592;2023-03-17T10:05:36;8.43;;;1.80;;
35442;SDS011;21561;55.654;37.592;2023-03-17T10:08:15;8.07;;;1.52;;
35442;SDS011;21561;55.654;37.592;2023-03-17T10:11:22;10.25;;;1.70;;
35442;SDS011;21561;55.654;37.592;2023-03-17T10:19:24;6.30;;;1.50;;
35442;SDS011;21561;55.654;37.592;2023-03-17T10:22:00;8.10;;;1.90;;
35442;SDS011;21561;55.654;37.592;2023-03-17T10:24:31;6.78;;;1.60;;
35442;SDS011;21561;55.654;37.592;2023-03-17T10:27:00;9.70;;;1.35;;
35442;SDS011;21561;55.654;37.592;2023-03-17T10:31:58;2.35;;;0.90;;
35442;SDS011;21561;55.654;37.592;2023-03-17T10:34:26;4.70;;;0.82;;
35442;SDS011;21561;55.654;37.592;2023-03-17T10:36:59;2.95;;;0.90;;
35442;SDS011;21561;55.654;37.592;2023-03-17T10:39:42;8.30;;;1.20;;
35442;SDS011;21561;55.654;37.592;2023-03-17T10:42:25;2.25;;;0.85;;
35442;SDS011;21561;55.654;37.592;2023-03-17T10:44:58;7.55;;;1.15;;
35442;SDS011;21561;55.654;37.592;2023-03-17T10:47:39;7.80;;;1.00;;
35442;SDS011;21561;55.654;37.592;2023-03-17T10:55:33;3.60;;;1.25;;
35442;SDS011;21561;55.654;37.592;2023-03-17T10:58:12;3.83;;;1.20;;
35442;SDS011;21561;55.654;37.592;2023-03-17T11:00:58;5.93;;;1.10;;
35442;SDS011;21561;55.654;37.592;2023-03-17T11:03:45;9.88;;;1.80;;
35442;SDS011;21561;55.654;37.592;2023-03-17T11:06:15;13.90;;;4.43;;
35442;SDS011;21561;55.654;37.592;2023-03-17T11:11:29;8.07;;;1.92;;
35442;SDS011;21561;55.654;37.592;2023-03-17T11:16:37;8.80;;;1.42;;
35442;SDS011;21561;55.654;37.592;2023-03-17T11:19:18;5.85;;;1.55;;
35442;SDS011;21561;55.654;37.592;2023-03-17T11:22:09;7.15;;;1.60;;
35442;SDS011;21561;55.654;37.592;2023-03-17T11:24:55;7.75;;;1.50;;
35442;SDS011;21561;55.654;37.592;2023-03-17T11:27:30;6.57;;;1.63;;
35442;SDS011;21561;55.654;37.592;2023-03-17T11:30:11;7.78;;;1.63;;
35442;SDS011;21561;55.654;37.592;2023-03-17T11:32:48;8.25;;;1.75;;
35442;SDS011;21561;55.654;37.592;2023-03-17T11:35:27;9.90;;;1.60;;
35442;SDS011;21561;55.654;37.592;2023-03-17T11:43:36;5.82;;;1.60;;
35442;SDS011;21561;55.654;37.592;2023-03-17T11:46:28;5.78;;;1.75;;
35442;SDS011;21561;55.654;37.592;2023-03-17T11:51:59;4.82;;;1.60;;
35442;SDS011;21561;55.654;37.592;2023-03-17T12:05:46;8.68;;;1.80;;
35442;SDS011;21561;55.654;37.592;2023-03-17T12:10:51;6.03;;;1.77;;
35442;SDS011;21561;55.654;37.592;2023-03-17T12:13:22;6.70;;;1.90;;
35442;SDS011;21561;55.654;37.592;2023-03-17T12:15:51;4.90;;;1.60;;
35442;SDS011;21561;55.654;37.592;2023-03-17T12:18:25;6.53;;;1.60;;
35442;SDS011;21561;55.654;37.592;2023-03-17T12:21:07;6.13;;;1.65;;
35442;SDS011;21561;55.654;37.592;2023-03-17T12:26:11;3.90;;;1.50;;
35442;SDS011;21561;55.654;37.592;2023-03-17T12:28:41;6.32;;;1.83;;
35442;SDS011;21561;55.654;37.592;2023-03-17T12:31:18;6.40;;;1.52;;
35442;SDS011;21561;55.654;37.592;2023-03-17T12:36:43;3.20;;;1.40;;
35442;SDS011;21561;55.654;37.592;2023-03-17T12:39:12;3.75;;;1.40;;
35442;SDS011;21561;55.654;37.592;2023-03-17T12:55:25;7.43;;;1.40;;
35442;SDS011;21561;55.654;37.592;2023-03-17T13:00:36;5.05;;;1.80;;
35442;SDS011;21561;55.654;37.592;2023-03-17T13:03:19;5.88;;;1.60;;
35442;SDS011;21561;55.654;37.592;2023-03-17T13:05:50;5.82;;;1.20;;
35442;SDS011;21561;55.654;37.592;2023-03-17T13:08:24;4.37;;;1.33;;
35442;SDS011;21561;55.654;37.592;2023-03-17T13:19:11;7.88;;;1.90;;
35442;SDS011;21561;55.654;37.592;2023-03-17T13:21:42;8.80;;;1.87;;
35442;SDS011;21561;55.654;37.592;2023-03-17T13:29:37;6.45;;;1.50;;
35442;SDS011;21561;55.654;37.592;2023-03-17T13:34:49;5.93;;;1.45;;
35442;SDS011;21561;55.654;37.592;2023-03-17T13:45:18;5.75;;;1.75;;
35442;SDS011;21561;55.654;37.592;2023-03-17T13:47:52;5.30;;;1.25;;
35442;SDS011;21561;55.654;37.592;2023-03-17T13:53:42;7.07;;;1.60;;
35442;SDS011;21561;55.654;37.592;2023-03-17T13:56:23;5.72;;;1.50;;
35442;SDS011;21561;55.654;37.592;2023-03-17T14:01:59;9.35;;;1.65;;
35442;SDS011;21561;55.654;37.592;2023-03-17T14:04:36;8.82;;;2.65;;
35442;SDS011;21561;55.654;37.592;2023-03-17T14:07:12;11.88;;;1.90;;
35442;SDS011;21561;55.654;37.592;2023-03-17T14:09:44;4.55;;;1.35;;
35442;SDS011;21561;55.654;37.592;2023-03-17T14:12:55;5.90;;;2.00;;
35442;SDS011;21561;55.654;37.592;2023-03-17T14:15:13;6.18;;;1.73;;
35442;SDS011;21561;55.654;37.592;2023-03-17T14:17:53;8.90;;;2.03;;
35442;SDS011;21561;55.654;37.592;2023-03-17T14:20:26;6.60;;;1.90;;
35442;SDS011;21561;55.654;37.592;2023-03-17T14:22:55;9.75;;;1.85;;
35442;SDS011;21561;55.654;37.592;2023-03-17T14:25:26;9.70;;;1.57;;
35442;SDS011;21561;55.654;37.592;2023-03-17T14:28:05;7.72;;;1.63;;
35442;SDS011;21561;55.654;37.592;2023-03-17T14:30:36;7.45;;;1.77;;
35442;SDS011;21561;55.654;37.592;2023-03-17T14:35:36;4.07;;;1.48;;
35442;SDS011;21561;55.654;37.592;2023-03-17T14:38:26;4.32;;;1.40;;
35442;SDS011;21561;55.654;37.592;2023-03-17T14:40:59;6.18;;;1.33;;
35442;SDS011;21561;55.654;37.592;2023-03-17T14:43:41;7.82;;;1.80;;
35442;SDS011;21561;55.654;37.592;2023-03-17T14:46:17;6.10;;;1.75;;
35442;SDS011;21561;55.654;37.592;2023-03-17T14:48:59;6.20;;;1.25;;
35442;SDS011;21561;55.654;37.592;2023-03-17T14:51:31;4.15;;;1.10;;
35442;SDS011;21561;55.654;37.592;2023-03-17T14:54:04;6.45;;;1.48;;
35442;SDS011;21561;55.654;37.592;2023-03-17T14:56:40;7.35;;;1.40;;
35442;SDS011;21561;55.654;37.592;2023-03-17T15:01:52;4.53;;;1.38;;
35442;SDS011;21561;55.654;37.592;2023-03-17T15:04:24;5.10;;;1.48;;
35442;SDS011;21561;55.654;37.592;2023-03-17T15:06:57;6.20;;;1.60;;
35442;SDS011;21561;55.654;37.592;2023-03-17T15:09:27;6.70;;;1.10;;
35442;SDS011;21561;55.654;37.592;2023-03-17T15:12:05;4.10;;;1.08;;
35442;SDS011;21561;55.654;37.592;2023-03-17T15:14:43;3.35;;;0.80;;
35442;SDS011;21561;55.654;37.592;2023-03-17T15:17:16;5.05;;;1.08;;
35442;SDS011;21561;55.654;37.592;2023-03-17T15:19:48;6.28;;;1.55;;
35442;SDS011;21561;55.654;37.592;2023-03-17T15:22:25;4.10;;;1.20;;
35442;SDS011;21561;55.654;37.592;2023-03-17T15:27:51;6.88;;;1.40;;
35442;SDS011;21561;55.654;37.592;2023-03-17T15:30:18;2.83;;;1.10;;
35442;SDS011;21561;55.654;37.592;2023-03-17T15:32:57;5.50;;;1.40;;
35442;SDS011;21561;55.654;37.592;2023-03-17T15:35:26;4.90;;;1.30;;
35442;SDS011;21561;55.654;37.592;2023-03-17T15:37:54;5.22;;;1.90;;
35442;SDS011;21561;55.654;37.592;2023-03-17T15:40:21;6.78;;;1.50;;
35442;SDS011;21561;55.654;37.592;2023-03-17T15:42:49;5.28;;;1.40;;
35442;SDS011;21561;55.654;37.592;2023-03-17T15:45:16;4.15;;;1.50;;
35442;SDS011;21561;55.654;37.592;2023-03-17T15:47:43;7.10;;;1.30;;
35442;SDS011;21561;55.654;37.592;2023-03-17T15:50:16;6.60;;;2.08;;
35442;SDS011;21561;55.654;37.592;2023-03-17T15:52:49;6.90;;;1.40;;
35442;SDS011;21561;55.654;37.592;2023-03-17T15:57:49;3.55;;;1.27;;
35442;SDS011;21561;55.654;37.592;2023-03-17T16:00:21;3.38;;;1.35;;
35442;SDS011;21561;55.654;37.592;2023-03-17T16:02:50;6.38;;;1.20;;
35442;SDS011;21561;55.654;37.592;2023-03-17T16:05:23;4.47;;;1.30;;
35442;SDS011;21561;55.654;37.592;2023-03-17T16:08:00;10.38;;;1.90;;
35442;SDS011;21561;55.654;37.592;2023-03-17T16:10:28;10.75;;;1.80;;
35442;SDS011;21561;55.654;37.592;2023-03-17T16:12:57;3.75;;;0.85;;
35442;SDS011;21561;55.654;37.592;2023-03-17T16:15:25;12.25;;;1.60;;
35442;SDS011;21561;55.654;37.592;2023-03-17T16:17:57;6.25;;;1.58;;
35442;SDS011;21561;55.654;37.592;2023-03-17T16:20:27;6.32;;;1.52;;
35442;SDS011;21561;55.654;37.592;2023-03-17T16:23:00;7.30;;;1.50;;
35442;SDS011;21561;55.654;37.592;2023-03-17T16:25:32;6.57;;;1.45;;
35442;SDS011;21561;55.654;37.592;2023-03-17T16:28:00;6.13;;;1.60;;
35442;SDS011;21561;55.654;37.592;2023-03-17T16:30:33;6.63;;;1.80;;
35442;SDS011;21561;55.654;37.592;2023-03-17T16:33:01;8.25;;;1.80;;
35442;SDS011;21561;55.654;37.592;2023-03-17T16:35:37;8.57;;;2.47;;
35442;SDS011;21561;55.654;37.592;2023-03-17T16:38:04;7.25;;;1.88;;
35442;SDS011;21561;55.654;37.592;2023-03-17T16:40:33;8.02;;;1.92;;
35442;SDS011;21561;55.654;37.592;2023-03-17T16:43:04;9.32;;;2.00;;
35442;SDS011;21561;55.654;37.592;2023-03-17T16:45:49;7.18;;;2.00;;
35442;SDS011;21561;55.654;37.592;2023-03-17T16:48:18;9.60;;;2.17;;
35442;SDS011;21561;55.654;37.592;2023-03-17T16:50:45;7.97;;;1.80;;
35442;SDS011;21561;55.654;37.592;2023-03-17T16:53:14;7.78;;;1.60;;